sensor_id;sensor_type;location;lat;lon;timestamp;P1;durP1;ratioP1;P2;durP2;ratioP2
22634;SDS011;11484;50.858;4.384;2024-01-15T00:02:21;32.47;;;14.35;;
22634;SDS011;11484;50.858;4.384;2024-01-15T00:04:46;36.47;;;16.38;;
22634;SDS011;11484;50.858;4.384;2024-01-15T00:07:12;31.00;;;14.82;;
22634;SDS011;11484;50.858;4.384;2024-01-15T00:09:39;36.10;;;15.35;;
22634;SDS011;11484;50.858;4.384;2024-01-15T00:12:05;33.33;;;14.65;;
22634;SDS011;11484;50.858;4.384;2024-01-15T00:14:31;27.85;;;13.95;;
22634;SDS011;11484;50.858;4.384;2024-01-15T00:16:56;30.15;;;13.32;;
22634;SDS011;11484;50.858;4.384;2024-01-15T00:19:22;27.65;;;13.48;;
22634;SDS011;11484;50.858;4.384;2024-01-15T00:21:49;28.85;;;12.70;;
22634;SDS011;11484;50.858;4.384;2024-01-15T00:24:14;35.83;;;17.27;;
22634;SDS011;11484;50.858;4.384;2024-01-15T00:26:41;28.95;;;13.32;;
22634;SDS011;11484;50.858;4.384;2024-01-15T00:29:07;27.60;;;13.38;;
22634;SDS011;11484;50.858;4.384;2024-01-15T00:31:34;31.60;;;12.90;;
22634;SDS011;11484;50.858;4.384;2024-01-15T00:34:00;24.73;;;12.30;;
22634;SDS011;11484;50.858;4.384;2024-01-15T00:36:26;24.60;;;12.73;;
22634;SDS011;11484;50.858;4.384;2024-01-15T00:38:52;27.52;;;12.00;;
22634;SDS011;11484;50.858;4.384;2024-01-15T00:41:18;23.13;;;11.80;;
22634;SDS011;11484;50.858;4.384;2024-01-15T00:43:45;23.90;;;11.48;;
22634;SDS011;11484;50.858;4.384;2024-01-15T00:46:11;23.17;;;11.45;;
22634;SDS011;11484;50.858;4.384;2024-01-15T00:48:37;23.50;;;12.05;;
22634;SDS011;11484;50.858;4.384;2024-01-15T00:51:04;23.25;;;11.57;;
22634;SDS011;11484;50.858;4.384;2024-01-15T00:53:29;23.67;;;11.60;;
22634;SDS011;11484;50.858;4.384;2024-01-15T00:55:56;21.13;;;9.77;;
22634;SDS011;11484;50.858;4.384;2024-01-15T00:58:22;23.80;;;10.18;;
22634;SDS011;11484;50.858;4.384;2024-01-15T01:00:50;22.48;;;10.20;;
22634;SDS011;11484;50.858;4.384;2024-01-15T01:03:16;20.05;;;9.65;;
22634;SDS011;11484;50.858;4.384;2024-01-15T01:05:42;17.90;;;9.35;;
22634;SDS011;11484;50.858;4.384;2024-01-15T01:08:09;20.58;;;9.88;;
22634;SDS011;11484;50.858;4.384;2024-01-15T01:10:34;14.80;;;8.35;;
22634;SDS011;11484;50.858;4.384;2024-01-15T01:13:00;16.85;;;7.63;;
22634;SDS011;11484;50.858;4.384;2024-01-15T01:15:26;17.75;;;8.48;;
22634;SDS011;11484;50.858;4.384;2024-01-15T01:17:52;16.27;;;8.10;;
22634;SDS011;11484;50.858;4.384;2024-01-15T01:20:18;14.68;;;8.18;;
22634;SDS011;11484;50.858;4.384;2024-01-15T01:22:43;12.68;;;7.85;;
22634;SDS011;11484;50.858;4.384;2024-01-15T01:25:09;14.10;;;7.22;;
22634;SDS011;11484;50.858;4.384;2024-01-15T01:27:35;13.90;;;7.30;;
22634;SDS011;11484;50.858;4.384;2024-01-15T01:30:01;10.95;;;6.50;;
22634;SDS011;11484;50.858;4.384;2024-01-15T01:32:27;12.80;;;6.78;;
22634;SDS011;11484;50.858;4.384;2024-01-15T01:34:52;13.48;;;6.55;;
22634;SDS011;11484;50.858;4.384;2024-01-15T01:37:18;10.23;;;6.40;;
22634;SDS011;11484;50.858;4.384;2024-01-15T01:39:44;9.73;;;5.95;;
22634;SDS011;11484;50.858;4.384;2024-01-15T01:42:10;10.98;;;5.88;;
22634;SDS011;11484;50.858;4.384;2024-01-15T01:44:37;10.18;;;5.97;;
22634;SDS011;11484;50.858;4.384;2024-01-15T01:47:02;11.00;;;5.57;;
22634;SDS011;11484;50.858;4.384;2024-01-15T01:49:29;8.50;;;5.50;;
22634;SDS011;11484;50.858;4.384;2024-01-15T01:51:56;9.27;;;5.10;;
22634;SDS011;11484;50.858;4.384;2024-01-15T01:54:24;7.63;;;5.07;;
22634;SDS011;11484;50.858;4.384;2024-01-15T01:56:52;10.15;;;4.85;;
22634;SDS011;11484;50.858;4.384;2024-01-15T01:59:18;8.65;;;5.22;;
22634;SDS011;11484;50.858;4.384;2024-01-15T02:01:44;10.82;;;5.22;;
22634;SDS011;11484;50.858;4.384;2024-01-15T02:04:10;6.05;;;4.80;;
22634;SDS011;11484;50.858;4.384;2024-01-15T02:06:36;7.05;;;4.72;;
22634;SDS011;11484;50.858;4.384;2024-01-15T02:09:03;7.80;;;4.68;;
22634;SDS011;11484;50.858;4.384;2024-01-15T02:11:30;8.32;;;4.72;;
22634;SDS011;11484;50.858;4.384;2024-01-15T02:13:56;7.78;;;4.38;;
22634;SDS011;11484;50.858;4.384;2024-01-15T02:16:21;8.77;;;4.18;;
22634;SDS011;11484;50.858;4.384;2024-01-15T02:18:47;7.35;;;4.03;;
22634;SDS011;11484;50.858;4.384;2024-01-15T02:21:13;6.90;;;4.35;;
22634;SDS011;11484;50.858;4.384;2024-01-15T02:23:38;6.70;;;4.07;;
22634;SDS011;11484;50.858;4.384;2024-01-15T02:26:04;7.93;;;4.20;;
22634;SDS011;11484;50.858;4.384;2024-01-15T02:28:30;7.40;;;4.13;;
22634;SDS011;11484;50.858;4.384;2024-01-15T02:30:58;6.85;;;4.07;;
22634;SDS011;11484;50.858;4.384;2024-01-15T02:33:23;8.30;;;3.92;;
22634;SDS011;11484;50.858;4.384;2024-01-15T02:35:49;6.15;;;3.53;;
22634;SDS011;11484;50.858;4.384;2024-01-15T02:38:15;5.30;;;3.65;;
22634;SDS011;11484;50.858;4.384;2024-01-15T02:40:41;8.00;;;3.75;;
22634;SDS011;11484;50.858;4.384;2024-01-15T02:43:08;5.47;;;3.88;;
22634;SDS011;11484;50.858;4.384;2024-01-15T02:45:33;7.38;;;4.00;;
22634;SDS011;11484;50.858;4.384;2024-01-15T02:47:59;8.50;;;4.45;;
22634;SDS011;11484;50.858;4.384;2024-01-15T02:50:25;7.15;;;4.53;;
22634;SDS011;11484;50.858;4.384;2024-01-15T02:52:51;8.75;;;5.25;;
22634;SDS011;11484;50.858;4.384;2024-01-15T02:55:16;8.10;;;5.50;;
22634;SDS011;11484;50.858;4.384;2024-01-15T02:57:42;9.35;;;6.18;;
22634;SDS011;11484;50.858;4.384;2024-01-15T03:00:08;9.57;;;6.07;;
22634;SDS011;11484;50.858;4.384;2024-01-15T03:02:37;10.73;;;6.07;;
22634;SDS011;11484;50.858;4.384;2024-01-15T03:05:05;13.13;;;6.60;;
22634;SDS011;11484;50.858;4.384;2024-01-15T03:07:32;10.77;;;7.05;;
22634;SDS011;11484;50.858;4.384;2024-01-15T03:09:58;12.98;;;7.53;;
22634;SDS011;11484;50.858;4.384;2024-01-15T03:12:24;15.63;;;7.90;;
22634;SDS011;11484;50.858;4.384;2024-01-15T03:14:49;17.27;;;8.60;;
22634;SDS011;11484;50.858;4.384;2024-01-15T03:17:15;15.70;;;8.90;;
22634;SDS011;11484;50.858;4.384;2024-01-15T03:19:41;16.77;;;8.43;;
22634;SDS011;11484;50.858;4.384;2024-01-15T03:22:06;17.02;;;9.02;;
22634;SDS011;11484;50.858;4.384;2024-01-15T03:24:34;15.65;;;8.80;;
22634;SDS011;11484;50.858;4.384;2024-01-15T03:27:00;15.80;;;8.80;;
22634;SDS011;11484;50.858;4.384;2024-01-15T03:29:26;17.58;;;9.57;;
22634;SDS011;11484;50.858;4.384;2024-01-15T03:31:52;16.25;;;9.82;;
22634;SDS011;11484;50.858;4.384;2024-01-15T03:34:18;19.73;;;9.25;;
22634;SDS011;11484;50.858;4.384;2024-01-15T03:36:43;19.23;;;9.57;;
22634;SDS011;11484;50.858;4.384;2024-01-15T03:39:09;16.60;;;8.98;;
22634;SDS011;11484;50.858;4.384;2024-01-15T03:41:35;16.08;;;9.75;;
22634;SDS011;11484;50.858;4.384;2024-01-15T03:44:01;19.70;;;10.30;;
22634;SDS011;11484;50.858;4.384;2024-01-15T03:46:27;19.60;;;10.65;;
22634;SDS011;11484;50.858;4.384;2024-01-15T03:48:52;19.48;;;10.52;;
22634;SDS011;11484;50.858;4.384;2024-01-15T03:51:18;20.48;;;11.40;;
22634;SDS011;11484;50.858;4.384;2024-01-15T03:53:44;21.98;;;10.30;;
22634;SDS011;11484;50.858;4.384;2024-01-15T03:56:10;20.17;;;10.45;;
22634;SDS011;11484;50.858;4.384;2024-01-15T03:58:35;21.35;;;11.30;;
22634;SDS011;11484;50.858;4.384;2024-01-15T04:01:01;21.48;;;10.88;;
22634;SDS011;11484;50.858;4.384;2024-01-15T04:03:27;25.67;;;12.15;;
22634;SDS011;11484;50.858;4.384;2024-01-15T04:05:52;25.20;;;12.40;;
22634;SDS011;11484;50.858;4.384;2024-01-15T04:08:18;23.50;;;12.40;;
22634;SDS011;11484;50.858;4.384;2024-01-15T04:10:44;24.20;;;12.77;;
22634;SDS011;11484;50.858;4.384;2024-01-15T04:13:10;26.73;;;12.52;;
22634;SDS011;11484;50.858;4.384;2024-01-15T04:15:35;23.27;;;11.85;;
22634;SDS011;11484;50.858;4.384;2024-01-15T04:18:02;22.60;;;12.60;;
22634;SDS011;11484;50.858;4.384;2024-01-15T04:20:28;24.02;;;12.75;;
22634;SDS011;11484;50.858;4.384;2024-01-15T04:22:54;24.17;;;12.43;;
22634;SDS011;11484;50.858;4.384;2024-01-15T04:25:19;23.02;;;12.65;;
22634;SDS011;11484;50.858;4.384;2024-01-15T04:27:45;22.45;;;12.05;;
22634;SDS011;11484;50.858;4.384;2024-01-15T04:30:11;24.27;;;12.35;;
22634;SDS011;11484;50.858;4.384;2024-01-15T04:32:37;26.27;;;12.77;;
22634;SDS011;11484;50.858;4.384;2024-01-15T04:35:02;24.95;;;12.18;;
22634;SDS011;11484;50.858;4.384;2024-01-15T04:37:28;21.25;;;11.45;;
22634;SDS011;11484;50.858;4.384;2024-01-15T04:39:54;23.63;;;12.32;;
22634;SDS011;11484;50.858;4.384;2024-01-15T04:42:23;22.10;;;12.25;;
22634;SDS011;11484;50.858;4.384;2024-01-15T04:44:49;22.27;;;12.60;;
22634;SDS011;11484;50.858;4.384;2024-01-15T04:47:14;22.95;;;11.93;;
22634;SDS011;11484;50.858;4.384;2024-01-15T04:49:40;22.77;;;11.95;;
22634;SDS011;11484;50.858;4.384;2024-01-15T04:52:06;20.17;;;11.23;;
22634;SDS011;11484;50.858;4.384;2024-01-15T04:54:32;19.23;;;10.73;;
22634;SDS011;11484;50.858;4.384;2024-01-15T04:56:57;19.75;;;10.25;;
22634;SDS011;11484;50.858;4.384;2024-01-15T04:59:23;17.90;;;10.35;;
22634;SDS011;11484;50.858;4.384;2024-01-15T05:01:49;19.55;;;9.82;;
22634;SDS011;11484;50.858;4.384;2024-01-15T05:04:14;15.90;;;8.65;;
22634;SDS011;11484;50.858;4.384;2024-01-15T05:06:40;14.13;;;8.13;;
22634;SDS011;11484;50.858;4.384;2024-01-15T05:09:06;16.80;;;8.40;;
22634;SDS011;11484;50.858;4.384;2024-01-15T05:11:32;10.90;;;6.13;;
22634;SDS011;11484;50.858;4.384;2024-01-15T05:13:58;9.82;;;5.50;;
22634;SDS011;11484;50.858;4.384;2024-01-15T05:16:23;11.32;;;6.03;;
22634;SDS011;11484;50.858;4.384;2024-01-15T05:18:52;11.65;;;5.72;;
22634;SDS011;11484;50.858;4.384;2024-01-15T05:21:18;5.45;;;4.20;;
22634;SDS011;11484;50.858;4.384;2024-01-15T05:23:43;5.63;;;3.45;;
22634;SDS011;11484;50.858;4.384;2024-01-15T05:26:09;4.25;;;3.08;;
22634;SDS011;11484;50.858;4.384;2024-01-15T05:28:35;10.07;;;3.70;;
22634;SDS011;11484;50.858;4.384;2024-01-15T05:31:01;8.65;;;3.60;;
22634;SDS011;11484;50.858;4.384;2024-01-15T05:33:26;5.53;;;3.45;;
22634;SDS011;11484;50.858;4.384;2024-01-15T05:35:52;5.47;;;3.45;;
22634;SDS011;11484;50.858;4.384;2024-01-15T05:38:19;7.28;;;3.72;;
22634;SDS011;11484;50.858;4.384;2024-01-15T05:40:44;6.10;;;3.63;;
22634;SDS011;11484;50.858;4.384;2024-01-15T05:43:10;5.90;;;3.85;;
22634;SDS011;11484;50.858;4.384;2024-01-15T05:45:37;8.68;;;3.03;;
22634;SDS011;11484;50.858;4.384;2024-01-15T05:48:04;7.03;;;2.67;;
22634;SDS011;11484;50.858;4.384;2024-01-15T05:50:29;4.70;;;2.90;;
22634;SDS011;11484;50.858;4.384;2024-01-15T05:52:55;7.20;;;2.90;;
22634;SDS011;11484;50.858;4.384;2024-01-15T05:55:21;6.50;;;2.92;;
22634;SDS011;11484;50.858;4.384;2024-01-15T05:57:47;5.93;;;3.75;;
22634;SDS011;11484;50.858;4.384;2024-01-15T06:00:12;6.65;;;2.50;;
22634;SDS011;11484;50.858;4.384;2024-01-15T06:02:39;6.82;;;2.63;;
22634;SDS011;11484;50.858;4.384;2024-01-15T06:05:04;9.30;;;4.72;;
22634;SDS011;11484;50.858;4.384;2024-01-15T06:07:31;3.08;;;2.17;;
22634;SDS011;11484;50.858;4.384;2024-01-15T06:09:57;6.95;;;2.25;;
22634;SDS011;11484;50.858;4.384;2024-01-15T06:12:22;5.03;;;2.38;;
22634;SDS011;11484;50.858;4.384;2024-01-15T06:14:48;3.63;;;2.03;;
22634;SDS011;11484;50.858;4.384;2024-01-15T06:17:14;6.13;;;2.08;;
22634;SDS011;11484;50.858;4.384;2024-01-15T06:19:40;5.35;;;1.85;;
22634;SDS011;11484;50.858;4.384;2024-01-15T06:22:05;4.28;;;1.83;;
22634;SDS011;11484;50.858;4.384;2024-01-15T06:24:31;3.53;;;1.90;;
22634;SDS011;11484;50.858;4.384;2024-01-15T06:26:57;5.43;;;1.90;;
22634;SDS011;11484;50.858;4.384;2024-01-15T06:29:25;3.55;;;1.80;;
22634;SDS011;11484;50.858;4.384;2024-01-15T06:31:51;5.40;;;1.92;;
22634;SDS011;11484;50.858;4.384;2024-01-15T06:34:16;4.22;;;2.33;;
22634;SDS011;11484;50.858;4.384;2024-01-15T06:36:42;4.07;;;2.00;;
22634;SDS011;11484;50.858;4.384;2024-01-15T06:39:08;7.65;;;2.72;;
22634;SDS011;11484;50.858;4.384;2024-01-15T06:41:35;5.10;;;2.35;;
22634;SDS011;11484;50.858;4.384;2024-01-15T06:44:06;6.13;;;2.40;;
22634;SDS011;11484;50.858;4.384;2024-01-15T06:46:32;6.20;;;3.20;;
22634;SDS011;11484;50.858;4.384;2024-01-15T06:48:58;6.32;;;2.90;;
22634;SDS011;11484;50.858;4.384;2024-01-15T06:51:23;5.40;;;2.50;;
22634;SDS011;11484;50.858;4.384;2024-01-15T06:53:49;8.93;;;3.15;;
22634;SDS011;11484;50.858;4.384;2024-01-15T06:56:15;4.47;;;3.00;;
22634;SDS011;11484;50.858;4.384;2024-01-15T06:58:40;9.20;;;3.00;;
22634;SDS011;11484;50.858;4.384;2024-01-15T07:01:06;8.57;;;3.30;;
22634;SDS011;11484;50.858;4.384;2024-01-15T07:03:33;7.32;;;4.07;;
22634;SDS011;11484;50.858;4.384;2024-01-15T07:05:58;8.43;;;4.15;;
22634;SDS011;11484;50.858;4.384;2024-01-15T07:08:25;11.05;;;3.70;;
22634;SDS011;11484;50.858;4.384;2024-01-15T07:10:51;5.35;;;3.05;;
22634;SDS011;11484;50.858;4.384;2024-01-15T07:13:17;7.60;;;3.28;;
22634;SDS011;11484;50.858;4.384;2024-01-15T07:15:42;7.93;;;3.50;;
22634;SDS011;11484;50.858;4.384;2024-01-15T07:18:08;3.90;;;3.03;;
22634;SDS011;11484;50.858;4.384;2024-01-15T07:20:34;7.57;;;3.17;;
22634;SDS011;11484;50.858;4.384;2024-01-15T07:22:59;5.93;;;2.75;;
22634;SDS011;11484;50.858;4.384;2024-01-15T07:25:26;7.25;;;3.42;;
22634;SDS011;11484;50.858;4.384;2024-01-15T07:27:52;8.50;;;4.30;;
22634;SDS011;11484;50.858;4.384;2024-01-15T07:30:18;6.03;;;3.75;;
22634;SDS011;11484;50.858;4.384;2024-01-15T07:32:46;6.57;;;2.90;;
22634;SDS011;11484;50.858;4.384;2024-01-15T07:35:13;5.10;;;2.85;;
22634;SDS011;11484;50.858;4.384;2024-01-15T07:37:40;9.43;;;3.20;;
22634;SDS011;11484;50.858;4.384;2024-01-15T07:40:06;7.18;;;4.05;;
22634;SDS011;11484;50.858;4.384;2024-01-15T07:42:36;8.88;;;3.65;;
22634;SDS011;11484;50.858;4.384;2024-01-15T07:45:03;6.40;;;3.83;;
22634;SDS011;11484;50.858;4.384;2024-01-15T07:47:29;9.85;;;4.35;;
22634;SDS011;11484;50.858;4.384;2024-01-15T07:49:55;9.80;;;4.22;;
22634;SDS011;11484;50.858;4.384;2024-01-15T07:52:21;7.32;;;4.25;;
22634;SDS011;11484;50.858;4.384;2024-01-15T07:54:47;9.57;;;4.50;;
22634;SDS011;11484;50.858;4.384;2024-01-15T07:57:12;6.75;;;4.53;;
22634;SDS011;11484;50.858;4.384;2024-01-15T07:59:38;10.40;;;4.50;;
22634;SDS011;11484;50.858;4.384;2024-01-15T08:02:05;11.55;;;5.00;;
22634;SDS011;11484;50.858;4.384;2024-01-15T08:04:31;7.47;;;4.43;;
22634;SDS011;11484;50.858;4.384;2024-01-15T08:06:56;7.38;;;4.40;;
22634;SDS011;11484;50.858;4.384;2024-01-15T08:09:23;11.10;;;5.40;;
22634;SDS011;11484;50.858;4.384;2024-01-15T08:11:48;10.48;;;4.88;;
22634;SDS011;11484;50.858;4.384;2024-01-15T08:14:14;8.65;;;5.35;;
22634;SDS011;11484;50.858;4.384;2024-01-15T08:16:40;8.98;;;5.00;;
22634;SDS011;11484;50.858;4.384;2024-01-15T08:19:06;10.15;;;5.13;;
22634;SDS011;11484;50.858;4.384;2024-01-15T08:21:32;9.63;;;4.22;;
22634;SDS011;11484;50.858;4.384;2024-01-15T08:23:59;7.38;;;4.20;;
22634;SDS011;11484;50.858;4.384;2024-01-15T08:26:25;7.50;;;4.38;;
22634;SDS011;11484;50.858;4.384;2024-01-15T08:28:51;12.35;;;4.13;;
22634;SDS011;11484;50.858;4.384;2024-01-15T08:31:17;7.28;;;3.38;;
22634;SDS011;11484;50.858;4.384;2024-01-15T08:33:43;10.43;;;4.45;;
22634;SDS011;11484;50.858;4.384;2024-01-15T08:36:12;9.43;;;3.47;;
22634;SDS011;11484;50.858;4.384;2024-01-15T08:38:38;8.07;;;3.30;;
22634;SDS011;11484;50.858;4.384;2024-01-15T08:41:04;12.60;;;3.40;;
22634;SDS011;11484;50.858;4.384;2024-01-15T08:43:30;6.03;;;3.05;;
22634;SDS011;11484;50.858;4.384;2024-01-15T08:45:56;6.03;;;2.72;;
22634;SDS011;11484;50.858;4.384;2024-01-15T08:48:22;9.93;;;3.30;;
22634;SDS011;11484;50.858;4.384;2024-01-15T08:50:52;10.23;;;3.05;;
22634;SDS011;11484;50.858;4.384;2024-01-15T08:53:18;8.55;;;3.17;;
22634;SDS011;11484;50.858;4.384;2024-01-15T08:55:44;12.00;;;2.75;;
22634;SDS011;11484;50.858;4.384;2024-01-15T08:58:09;8.48;;;2.65;;
22634;SDS011;11484;50.858;4.384;2024-01-15T09:00:35;5.68;;;2.72;;
22634;SDS011;11484;50.858;4.384;2024-01-15T09:03:01;7.43;;;2.85;;
22634;SDS011;11484;50.858;4.384;2024-01-15T09:05:27;6.20;;;2.45;;
22634;SDS011;11484;50.858;4.384;2024-01-15T09:07:53;8.35;;;2.45;;
22634;SDS011;11484;50.858;4.384;2024-01-15T09:10:19;7.63;;;2.03;;
22634;SDS011;11484;50.858;4.384;2024-01-15T09:12:45;6.22;;;2.40;;
22634;SDS011;11484;50.858;4.384;2024-01-15T09:15:11;8.40;;;3.03;;
22634;SDS011;11484;50.858;4.384;2024-01-15T09:17:48;5.47;;;2.70;;
22634;SDS011;11484;50.858;4.384;2024-01-15T09:20:13;5.75;;;2.40;;
22634;SDS011;11484;50.858;4.384;2024-01-15T09:22:40;4.90;;;2.35;;
22634;SDS011;11484;50.858;4.384;2024-01-15T09:25:08;8.35;;;2.35;;
22634;SDS011;11484;50.858;4.384;2024-01-15T09:27:37;5.18;;;2.33;;
22634;SDS011;11484;50.858;4.384;2024-01-15T09:30:06;8.40;;;2.42;;
22634;SDS011;11484;50.858;4.384;2024-01-15T09:32:32;5.57;;;2.13;;
22634;SDS011;11484;50.858;4.384;2024-01-15T09:34:57;10.85;;;2.72;;
22634;SDS011;11484;50.858;4.384;2024-01-15T09:37:23;8.40;;;2.50;;
22634;SDS011;11484;50.858;4.384;2024-01-15T09:39:49;9.43;;;2.10;;
22634;SDS011;11484;50.858;4.384;2024-01-15T09:42:15;5.20;;;2.55;;
22634;SDS011;11484;50.858;4.384;2024-01-15T09:44:41;6.45;;;2.30;;
22634;SDS011;11484;50.858;4.384;2024-01-15T09:47:07;7.63;;;3.55;;
22634;SDS011;11484;50.858;4.384;2024-01-15T09:49:33;7.85;;;2.65;;
22634;SDS011;11484;50.858;4.384;2024-01-15T09:51:59;6.93;;;2.65;;
22634;SDS011;11484;50.858;4.384;2024-01-15T09:54:27;5.00;;;2.78;;
22634;SDS011;11484;50.858;4.384;2024-01-15T09:56:53;11.48;;;2.88;;
22634;SDS011;11484;50.858;4.384;2024-01-15T09:59:20;9.60;;;2.65;;
22634;SDS011;11484;50.858;4.384;2024-01-15T10:01:47;10.00;;;2.67;;
22634;SDS011;11484;50.858;4.384;2024-01-15T10:04:15;14.57;;;4.13;;
22634;SDS011;11484;50.858;4.384;2024-01-15T10:06:44;7.40;;;2.45;;
22634;SDS011;11484;50.858;4.384;2024-01-15T10:09:14;6.47;;;2.25;;
22634;SDS011;11484;50.858;4.384;2024-01-15T10:11:41;6.40;;;2.53;;
22634;SDS011;11484;50.858;4.384;2024-01-15T10:14:11;5.45;;;2.30;;
22634;SDS011;11484;50.858;4.384;2024-01-15T10:16:38;15.63;;;2.60;;
22634;SDS011;11484;50.858;4.384;2024-01-15T10:19:04;8.30;;;2.40;;
22634;SDS011;11484;50.858;4.384;2024-01-15T10:21:32;9.77;;;2.90;;
22634;SDS011;11484;50.858;4.384;2024-01-15T10:24:01;7.20;;;3.08;;
22634;SDS011;11484;50.858;4.384;2024-01-15T10:26:27;8.20;;;3.20;;
22634;SDS011;11484;50.858;4.384;2024-01-15T10:28:53;9.15;;;2.55;;
22634;SDS011;11484;50.858;4.384;2024-01-15T10:31:19;12.15;;;3.90;;
22634;SDS011;11484;50.858;4.384;2024-01-15T10:33:47;9.55;;;3.72;;
22634;SDS011;11484;50.858;4.384;2024-01-15T10:36:13;6.78;;;2.50;;
22634;SDS011;11484;50.858;4.384;2024-01-15T10:38:41;9.48;;;3.78;;
22634;SDS011;11484;50.858;4.384;2024-01-15T10:41:08;7.68;;;2.75;;
22634;SDS011;11484;50.858;4.384;2024-01-15T10:43:34;8.82;;;2.45;;
22634;SDS011;11484;50.858;4.384;2024-01-15T10:46:00;8.52;;;2.78;;
22634;SDS011;11484;50.858;4.384;2024-01-15T10:48:27;8.27;;;2.47;;
22634;SDS011;11484;50.858;4.384;2024-01-15T10:50:55;6.07;;;2.60;;
22634;SDS011;11484;50.858;4.384;2024-01-15T10:53:22;9.05;;;3.05;;
22634;SDS011;11484;50.858;4.384;2024-01-15T10:55:50;9.30;;;3.00;;
22634;SDS011;11484;50.858;4.384;2024-01-15T10:58:18;6.95;;;2.78;;
22634;SDS011;11484;50.858;4.384;2024-01-15T11:00:45;8.70;;;3.53;;
22634;SDS011;11484;50.858;4.384;2024-01-15T11:03:11;7.38;;;2.72;;
22634;SDS011;11484;50.858;4.384;2024-01-15T11:05:38;8.35;;;3.10;;
22634;SDS011;11484;50.858;4.384;2024-01-15T11:08:05;12.32;;;3.42;;
22634;SDS011;11484;50.858;4.384;2024-01-15T11:10:52;11.60;;;4.22;;
22634;SDS011;11484;50.858;4.384;2024-01-15T11:13:39;9.23;;;3.30;;
22634;SDS011;11484;50.858;4.384;2024-01-15T11:16:12;7.80;;;3.03;;
22634;SDS011;11484;50.858;4.384;2024-01-15T11:21:28;6.57;;;2.42;;
22634;SDS011;11484;50.858;4.384;2024-01-15T11:24:07;5.63;;;1.90;;
22634;SDS011;11484;50.858;4.384;2024-01-15T11:37:18;9.13;;;3.00;;
22634;SDS011;11484;50.858;4.384;2024-01-15T11:39:45;10.82;;;4.22;;
22634;SDS011;11484;50.858;4.384;2024-01-15T11:42:14;8.97;;;2.10;;
22634;SDS011;11484;50.858;4.384;2024-01-15T11:44:43;8.77;;;2.83;;
22634;SDS011;11484;50.858;4.384;2024-01-15T11:47:10;13.55;;;4.63;;
22634;SDS011;11484;50.858;4.384;2024-01-15T11:52:10;6.72;;;2.15;;
22634;SDS011;11484;50.858;4.384;2024-01-15T11:54:41;7.35;;;2.47;;
22634;SDS011;11484;50.858;4.384;2024-01-15T11:57:18;7.78;;;2.30;;
22634;SDS011;11484;50.858;4.384;2024-01-15T11:59:54;9.13;;;2.35;;
22634;SDS011;11484;50.858;4.384;2024-01-15T12:02:20;4.95;;;2.53;;
22634;SDS011;11484;50.858;4.384;2024-01-15T12:04:46;6.50;;;1.92;;
22634;SDS011;11484;50.858;4.384;2024-01-15T12:07:12;9.43;;;2.53;;
22634;SDS011;11484;50.858;4.384;2024-01-15T12:09:42;9.27;;;3.30;;
22634;SDS011;11484;50.858;4.384;2024-01-15T12:12:09;6.47;;;1.95;;
22634;SDS011;11484;50.858;4.384;2024-01-15T12:14:41;6.47;;;1.77;;
22634;SDS011;11484;50.858;4.384;2024-01-15T12:17:07;11.30;;;3.08;;
22634;SDS011;11484;50.858;4.384;2024-01-15T12:19:33;11.00;;;3.20;;
22634;SDS011;11484;50.858;4.384;2024-01-15T12:21:59;5.30;;;2.22;;
22634;SDS011;11484;50.858;4.384;2024-01-15T12:24:26;8.55;;;2.83;;
22634;SDS011;11484;50.858;4.384;2024-01-15T12:26:52;10.65;;;2.45;;
22634;SDS011;11484;50.858;4.384;2024-01-15T12:29:17;4.13;;;1.65;;
22634;SDS011;11484;50.858;4.384;2024-01-15T12:31:46;9.23;;;2.03;;
22634;SDS011;11484;50.858;4.384;2024-01-15T12:34:13;8.32;;;2.45;;
22634;SDS011;11484;50.858;4.384;2024-01-15T12:36:41;9.88;;;3.40;;
22634;SDS011;11484;50.858;4.384;2024-01-15T12:39:11;11.38;;;2.70;;
22634;SDS011;11484;50.858;4.384;2024-01-15T12:41:38;7.47;;;3.08;;
22634;SDS011;11484;50.858;4.384;2024-01-15T12:44:06;6.90;;;2.90;;
22634;SDS011;11484;50.858;4.384;2024-01-15T12:46:32;9.10;;;2.00;;
22634;SDS011;11484;50.858;4.384;2024-01-15T12:48:58;4.05;;;1.75;;
22634;SDS011;11484;50.858;4.384;2024-01-15T12:51:26;7.50;;;2.60;;
22634;SDS011;11484;50.858;4.384;2024-01-15T12:53:52;10.32;;;1.92;;
22634;SDS011;11484;50.858;4.384;2024-01-15T12:56:18;8.23;;;2.33;;
22634;SDS011;11484;50.858;4.384;2024-01-15T12:58:44;8.88;;;2.45;;
22634;SDS011;11484;50.858;4.384;2024-01-15T13:01:13;6.43;;;2.42;;
22634;SDS011;11484;50.858;4.384;2024-01-15T13:03:38;4.75;;;2.30;;
22634;SDS011;11484;50.858;4.384;2024-01-15T13:06:04;8.80;;;3.25;;
22634;SDS011;11484;50.858;4.384;2024-01-15T13:08:30;4.88;;;2.05;;
22634;SDS011;11484;50.858;4.384;2024-01-15T13:10:58;7.43;;;1.85;;
22634;SDS011;11484;50.858;4.384;2024-01-15T13:13:24;6.00;;;2.08;;
22634;SDS011;11484;50.858;4.384;2024-01-15T13:15:50;9.27;;;2.22;;
22634;SDS011;11484;50.858;4.384;2024-01-15T13:18:16;6.68;;;2.25;;
22634;SDS011;11484;50.858;4.384;2024-01-15T13:20:44;7.07;;;2.40;;
22634;SDS011;11484;50.858;4.384;2024-01-15T13:23:10;8.88;;;2.85;;
22634;SDS011;11484;50.858;4.384;2024-01-15T13:25:40;5.25;;;2.05;;
22634;SDS011;11484;50.858;4.384;2024-01-15T13:28:08;10.05;;;2.83;;
22634;SDS011;11484;50.858;4.384;2024-01-15T13:30:34;7.85;;;3.03;;
22634;SDS011;11484;50.858;4.384;2024-01-15T13:33:02;9.48;;;2.53;;
22634;SDS011;11484;50.858;4.384;2024-01-15T13:35:29;13.27;;;3.55;;
22634;SDS011;11484;50.858;4.384;2024-01-15T13:37:58;10.75;;;2.97;;
22634;SDS011;11484;50.858;4.384;2024-01-15T13:40:23;6.32;;;2.60;;
22634;SDS011;11484;50.858;4.384;2024-01-15T13:42:52;8.68;;;2.85;;
22634;SDS011;11484;50.858;4.384;2024-01-15T13:45:19;8.50;;;2.50;;
22634;SDS011;11484;50.858;4.384;2024-01-15T13:47:45;8.63;;;3.33;;
22634;SDS011;11484;50.858;4.384;2024-01-15T13:50:11;10.40;;;3.03;;
22634;SDS011;11484;50.858;4.384;2024-01-15T13:52:40;9.48;;;3.15;;
22634;SDS011;11484;50.858;4.384;2024-01-15T13:55:06;8.65;;;2.78;;
22634;SDS011;11484;50.858;4.384;2024-01-15T13:57:33;7.40;;;2.45;;
22634;SDS011;11484;50.858;4.384;2024-01-15T13:59:59;9.73;;;2.90;;
22634;SDS011;11484;50.858;4.384;2024-01-15T14:02:25;7.50;;;2.33;;
22634;SDS011;11484;50.858;4.384;2024-01-15T14:04:54;5.53;;;2.03;;
22634;SDS011;11484;50.858;4.384;2024-01-15T14:07:19;3.70;;;1.85;;
22634;SDS011;11484;50.858;4.384;2024-01-15T14:09:46;5.57;;;2.08;;
22634;SDS011;11484;50.858;4.384;2024-01-15T14:12:15;5.35;;;2.35;;
22634;SDS011;11484;50.858;4.384;2024-01-15T14:14:40;7.60;;;2.30;;
22634;SDS011;11484;50.858;4.384;2024-01-15T14:17:06;7.00;;;2.80;;
22634;SDS011;11484;50.858;4.384;2024-01-15T14:19:37;5.72;;;2.10;;
22634;SDS011;11484;50.858;4.384;2024-01-15T14:22:05;5.57;;;2.95;;
22634;SDS011;11484;50.858;4.384;2024-01-15T14:24:31;9.73;;;2.92;;
22634;SDS011;11484;50.858;4.384;2024-01-15T14:26:57;8.63;;;4.03;;
22634;SDS011;11484;50.858;4.384;2024-01-15T14:29:23;11.27;;;4.10;;
22634;SDS011;11484;50.858;4.384;2024-01-15T14:31:51;9.23;;;3.03;;
22634;SDS011;11484;50.858;4.384;2024-01-15T14:34:16;4.72;;;2.08;;
22634;SDS011;11484;50.858;4.384;2024-01-15T14:36:43;5.40;;;2.05;;
22634;SDS011;11484;50.858;4.384;2024-01-15T14:39:09;3.65;;;1.40;;
22634;SDS011;11484;50.858;4.384;2024-01-15T14:41:35;4.45;;;1.67;;
22634;SDS011;11484;50.858;4.384;2024-01-15T14:44:00;4.68;;;2.10;;
22634;SDS011;11484;50.858;4.384;2024-01-15T14:46:26;1.88;;;1.45;;
22634;SDS011;11484;50.858;4.384;2024-01-15T14:48:52;12.65;;;5.03;;
22634;SDS011;11484;50.858;4.384;2024-01-15T14:51:18;6.25;;;3.70;;
22634;SDS011;11484;50.858;4.384;2024-01-15T14:53:46;5.05;;;2.65;;